Richland Center, WI (53581)

8:27 AM CST on February 09, 2016 (GMT -0600)
KWIRICHL5 | | Change Station
CLOSE
Current Station
Personal Weather Station
Location: Richland Center, WI
Elevation: 741 ft
Nearby Weather Stations

Elev 741 ft 43.33 °N, 90.39 °W | Updated 1 minute ago

Snow
Snow
10.2 °F
Feels Like 0 °F
N
6.0
Wind Variable Wind from NNW
Gusts 9.0 mph

Today
High -- | Low -- °F
--% Chance of Precip.
Yesterday
High -- | Low -- °F
Precip. -- in
Pressure 29.96 in
Visibility 6.0 miles
Clouds Mostly Cloudy 3600 ft
Mostly Cloudy 4900 ft
Overcast 8000 ft
Windchill 0 °F
Dew Point 4 °F
Humidity 77%
Rainfall 0.00 in
Snow Depth Not available.
7:08 AM 5:23 PM
New Moon, 1% visible
METAR KLNR 091356Z AUTO 32013KT 6SM -SN BKN036 BKN049 OVC080 M12/M17 A2993 RMK AO2 SLP144 P0000 T11221172
Pressure 29.96 in
Visibility 6.0 miles
Clouds Mostly Cloudy 3600 ft
Mostly Cloudy 4900 ft
Overcast 8000 ft
Windchill 0 °F
Dew Point 4 °F
Humidity 77%
Rainfall 0.00 in
Snow Depth Not available.
7:08 AM 5:23 PM
New Moon, 1% visible
METAR KLNR 091356Z AUTO 32013KT 6SM -SN BKN036 BKN049 OVC080 M12/M17 A2993 RMK AO2 SLP144 P0000 T11221172

10-Day Weather Forecast

Almanac

Astronomy

Feb. 09, 2016 Rise Set
Actual Time
Civil Twilight
Nautical Twilight
Astronomical Twilight
Moon
Length of Visible Light
Length of Day
Tomorrow will be .
, % of the Moon is Illuminated

Today's Extremes

State Highs State Lows

Community

WunderPhotos

Upload Photos

1,891,602 photos uploaded!

WunderBlog® & News

Nearby

Air Quality

  Air Quality AQ Index Pollutant
Not available.

Snow Depth

Station Depth Elevation

Earthquake Activity

City Distance Mag. Time & Date
Minimum magnitude displayed is 2.5.

Coastal Water Temperatures

Place Temperature

Stations

Nearby Weather Stations

Station Location Temp. Windchill Dew Point Humidity Wind Precip. Elev Updated Type
                   

Watches & Warnings

There are currently no watches in effect.